sensor_id;sensor_type;location;lat;lon;timestamp;temperature;humidity
65568;DHT22;52211;50.154;8.682;2023-04-08T00:01:01;11.40;64.50
65568;DHT22;52211;50.154;8.682;2023-04-08T00:03:28;11.40;64.40
65568;DHT22;52211;50.154;8.682;2023-04-08T00:05:56;11.40;64.40
65568;DHT22;52211;50.154;8.682;2023-04-08T00:08:25;11.40;64.40
65568;DHT22;52211;50.154;8.682;2023-04-08T00:10:59;11.30;64.30
65568;DHT22;52211;50.154;8.682;2023-04-08T00:13:26;11.30;64.40
65568;DHT22;52211;50.154;8.682;2023-04-08T00:15:56;11.30;64.30
65568;DHT22;52211;50.154;8.682;2023-04-08T00:18:23;11.30;64.30
65568;DHT22;52211;50.154;8.682;2023-04-08T00:20:53;11.20;64.30
65568;DHT22;52211;50.154;8.682;2023-04-08T00:23:20;11.10;64.30
65568;DHT22;52211;50.154;8.682;2023-04-08T00:25:47;11.10;64.30
65568;DHT22;52211;50.154;8.682;2023-04-08T00:28:21;11.10;64.30
65568;DHT22;52211;50.154;8.682;2023-04-08T00:30:51;11.00;64.30
65568;DHT22;52211;50.154;8.682;2023-04-08T00:33:21;11.00;64.30
65568;DHT22;52211;50.154;8.682;2023-04-08T00:35:50;10.90;64.30
65568;DHT22;52211;50.154;8.682;2023-04-08T00:38:20;10.90;64.30
65568;DHT22;52211;50.154;8.682;2023-04-08T00:40:47;10.80;64.30
65568;DHT22;52211;50.154;8.682;2023-04-08T00:43:17;10.80;64.40
65568;DHT22;52211;50.154;8.682;2023-04-08T00:45:51;10.70;64.40
65568;DHT22;52211;50.154;8.682;2023-04-08T00:48:18;10.60;64.40
65568;DHT22;52211;50.154;8.682;2023-04-08T00:50:47;10.60;64.50
65568;DHT22;52211;50.154;8.682;2023-04-08T00:53:17;10.60;64.60
65568;DHT22;52211;50.154;8.682;2023-04-08T00:55:47;10.50;64.60
65568;DHT22;52211;50.154;8.682;2023-04-08T00:58:17;10.50;64.50
65568;DHT22;52211;50.154;8.682;2023-04-08T01:00:51;10.40;64.60
65568;DHT22;52211;50.154;8.682;2023-04-08T01:03:41;10.40;64.80
65568;DHT22;52211;50.154;8.682;2023-04-08T01:06:49;10.30;64.90
65568;DHT22;52211;50.154;8.682;2023-04-08T01:09:26;10.30;65.10
65568;DHT22;52211;50.154;8.682;2023-04-08T01:11:56;10.30;64.60
65568;DHT22;52211;50.154;8.682;2023-04-08T01:14:29;10.20;64.60
65568;DHT22;52211;50.154;8.682;2023-04-08T01:17:05;10.20;64.70
65568;DHT22;52211;50.154;8.682;2023-04-08T01:19:38;10.10;64.70
65568;DHT22;52211;50.154;8.682;2023-04-08T01:22:26;10.10;64.70
65568;DHT22;52211;50.154;8.682;2023-04-08T01:25:04;10.10;64.80
65568;DHT22;52211;50.154;8.682;2023-04-08T01:27:41;10.00;64.90
65568;DHT22;52211;50.154;8.682;2023-04-08T01:30:10;9.90;64.80
65568;DHT22;52211;50.154;8.682;2023-04-08T01:32:41;9.90;64.80
65568;DHT22;52211;50.154;8.682;2023-04-08T01:35:15;9.90;64.90
65568;DHT22;52211;50.154;8.682;2023-04-08T01:37:47;9.80;64.90
65568;DHT22;52211;50.154;8.682;2023-04-08T01:40:18;9.80;64.90
65568;DHT22;52211;50.154;8.682;2023-04-08T01:42:48;9.70;64.90
65568;DHT22;52211;50.154;8.682;2023-04-08T01:45:20;9.70;64.90
65568;DHT22;52211;50.154;8.682;2023-04-08T01:47:48;9.70;64.90
65568;DHT22;52211;50.154;8.682;2023-04-08T01:50:16;9.60;64.90
65568;DHT22;52211;50.154;8.682;2023-04-08T01:52:48;9.60;65.00
65568;DHT22;52211;50.154;8.682;2023-04-08T01:55:21;9.60;65.00
65568;DHT22;52211;50.154;8.682;2023-04-08T01:57:51;9.60;65.10
65568;DHT22;52211;50.154;8.682;2023-04-08T02:00:24;9.50;65.00
65568;DHT22;52211;50.154;8.682;2023-04-08T02:02:55;9.50;65.20
65568;DHT22;52211;50.154;8.682;2023-04-08T02:05:24;9.50;65.10
65568;DHT22;52211;50.154;8.682;2023-04-08T02:07:51;9.50;65.10
65568;DHT22;52211;50.154;8.682;2023-04-08T02:10:20;9.40;65.10
65568;DHT22;52211;50.154;8.682;2023-04-08T02:12:49;9.30;65.00
65568;DHT22;52211;50.154;8.682;2023-04-08T02:15:19;9.30;65.10
65568;DHT22;52211;50.154;8.682;2023-04-08T02:17:57;9.30;65.20
65568;DHT22;52211;50.154;8.682;2023-04-08T02:20:36;9.20;65.20
65568;DHT22;52211;50.154;8.682;2023-04-08T02:23:19;9.20;65.40
65568;DHT22;52211;50.154;8.682;2023-04-08T02:25:52;9.20;65.30
65568;DHT22;52211;50.154;8.682;2023-04-08T02:28:26;9.20;65.20
65568;DHT22;52211;50.154;8.682;2023-04-08T02:31:01;9.10;65.20
65568;DHT22;52211;50.154;8.682;2023-04-08T02:33:30;9.10;65.30
65568;DHT22;52211;50.154;8.682;2023-04-08T02:36:00;9.00;65.20
65568;DHT22;52211;50.154;8.682;2023-04-08T02:38:29;9.00;65.30
65568;DHT22;52211;50.154;8.682;2023-04-08T02:41:03;8.90;65.30
65568;DHT22;52211;50.154;8.682;2023-04-08T02:43:31;9.00;65.40
65568;DHT22;52211;50.154;8.682;2023-04-08T02:45:59;8.90;65.30
65568;DHT22;52211;50.154;8.682;2023-04-08T02:48:31;8.90;65.40
65568;DHT22;52211;50.154;8.682;2023-04-08T02:51:00;8.90;65.40
65568;DHT22;52211;50.154;8.682;2023-04-08T02:53:30;8.80;65.40
65568;DHT22;52211;50.154;8.682;2023-04-08T02:55:56;8.80;65.40
65568;DHT22;52211;50.154;8.682;2023-04-08T02:58:23;8.70;65.30
65568;DHT22;52211;50.154;8.682;2023-04-08T03:00:50;8.80;65.40
65568;DHT22;52211;50.154;8.682;2023-04-08T03:03:17;8.70;65.40
65568;DHT22;52211;50.154;8.682;2023-04-08T03:05:44;8.70;65.40
65568;DHT22;52211;50.154;8.682;2023-04-08T03:08:11;8.60;65.40
65568;DHT22;52211;50.154;8.682;2023-04-08T03:10:38;8.60;65.50
65568;DHT22;52211;50.154;8.682;2023-04-08T03:13:07;8.60;65.50
65568;DHT22;52211;50.154;8.682;2023-04-08T03:15:36;8.60;65.50
65568;DHT22;52211;50.154;8.682;2023-04-08T03:18:05;8.50;65.50
65568;DHT22;52211;50.154;8.682;2023-04-08T03:20:32;8.50;65.50
65568;DHT22;52211;50.154;8.682;2023-04-08T03:22:59;8.50;65.50
65568;DHT22;52211;50.154;8.682;2023-04-08T03:25:26;8.50;65.50
65568;DHT22;52211;50.154;8.682;2023-04-08T03:28:01;8.50;65.60
65568;DHT22;52211;50.154;8.682;2023-04-08T03:30:31;8.50;65.60
65568;DHT22;52211;50.154;8.682;2023-04-08T03:33:03;8.50;65.60
65568;DHT22;52211;50.154;8.682;2023-04-08T03:35:33;8.40;65.60
65568;DHT22;52211;50.154;8.682;2023-04-08T03:38:01;8.40;65.60
65568;DHT22;52211;50.154;8.682;2023-04-08T03:40:32;8.40;65.60
65568;DHT22;52211;50.154;8.682;2023-04-08T03:42:59;8.40;65.60
65568;DHT22;52211;50.154;8.682;2023-04-08T03:45:26;8.40;65.60
65568;DHT22;52211;50.154;8.682;2023-04-08T03:47:55;8.30;65.60
65568;DHT22;52211;50.154;8.682;2023-04-08T03:50:22;8.30;65.70
65568;DHT22;52211;50.154;8.682;2023-04-08T03:52:49;8.30;65.60
65568;DHT22;52211;50.154;8.682;2023-04-08T03:55:16;8.30;65.70
65568;DHT22;52211;50.154;8.682;2023-04-08T03:57:45;8.30;65.60
65568;DHT22;52211;50.154;8.682;2023-04-08T04:00:13;8.20;65.60
65568;DHT22;52211;50.154;8.682;2023-04-08T04:02:40;8.20;65.60
65568;DHT22;52211;50.154;8.682;2023-04-08T04:05:07;8.20;65.60
65568;DHT22;52211;50.154;8.682;2023-04-08T04:07:37;8.20;65.60
65568;DHT22;52211;50.154;8.682;2023-04-08T04:10:04;8.20;65.80
65568;DHT22;52211;50.154;8.682;2023-04-08T04:12:36;8.10;65.70
65568;DHT22;52211;50.154;8.682;2023-04-08T04:15:06;8.10;65.80
65568;DHT22;52211;50.154;8.682;2023-04-08T04:17:36;8.10;65.80
65568;DHT22;52211;50.154;8.682;2023-04-08T04:20:04;8.10;65.80
65568;DHT22;52211;50.154;8.682;2023-04-08T04:22:32;8.10;65.70
65568;DHT22;52211;50.154;8.682;2023-04-08T04:24:58;8.00;65.60
65568;DHT22;52211;50.154;8.682;2023-04-08T04:27:35;7.90;65.60
65568;DHT22;52211;50.154;8.682;2023-04-08T04:30:07;8.00;65.70
65568;DHT22;52211;50.154;8.682;2023-04-08T04:32:37;8.00;65.70
65568;DHT22;52211;50.154;8.682;2023-04-08T04:35:10;7.90;65.70
65568;DHT22;52211;50.154;8.682;2023-04-08T04:37:40;7.90;65.70
65568;DHT22;52211;50.154;8.682;2023-04-08T04:40:09;7.90;65.80
65568;DHT22;52211;50.154;8.682;2023-04-08T04:42:36;7.90;65.70
65568;DHT22;52211;50.154;8.682;2023-04-08T04:45:06;7.80;65.60
65568;DHT22;52211;50.154;8.682;2023-04-08T04:47:35;7.80;65.70
65568;DHT22;52211;50.154;8.682;2023-04-08T04:50:05;7.80;65.70
65568;DHT22;52211;50.154;8.682;2023-04-08T04:52:32;7.70;65.70
65568;DHT22;52211;50.154;8.682;2023-04-08T04:55:04;7.70;65.70
65568;DHT22;52211;50.154;8.682;2023-04-08T04:57:33;7.70;65.70
65568;DHT22;52211;50.154;8.682;2023-04-08T05:00:02;7.70;65.70
65568;DHT22;52211;50.154;8.682;2023-04-08T05:02:34;7.70;65.70
65568;DHT22;52211;50.154;8.682;2023-04-08T05:05:02;7.70;65.80
65568;DHT22;52211;50.154;8.682;2023-04-08T05:07:34;7.70;65.70
65568;DHT22;52211;50.154;8.682;2023-04-08T05:10:05;7.60;65.80
65568;DHT22;52211;50.154;8.682;2023-04-08T05:12:32;7.60;65.70
65568;DHT22;52211;50.154;8.682;2023-04-08T05:15:03;7.60;65.70
65568;DHT22;52211;50.154;8.682;2023-04-08T05:17:32;7.60;65.80
65568;DHT22;52211;50.154;8.682;2023-04-08T05:20:01;7.60;65.80
65568;DHT22;52211;50.154;8.682;2023-04-08T05:22:30;7.50;65.80
65568;DHT22;52211;50.154;8.682;2023-04-08T05:24:57;7.60;65.90
65568;DHT22;52211;50.154;8.682;2023-04-08T05:27:26;7.60;65.90
65568;DHT22;52211;50.154;8.682;2023-04-08T05:29:53;7.60;65.90
65568;DHT22;52211;50.154;8.682;2023-04-08T05:32:21;7.60;66.00
65568;DHT22;52211;50.154;8.682;2023-04-08T05:34:50;7.60;65.90
65568;DHT22;52211;50.154;8.682;2023-04-08T05:37:24;7.60;65.90
65568;DHT22;52211;50.154;8.682;2023-04-08T05:39:51;7.60;66.00
65568;DHT22;52211;50.154;8.682;2023-04-08T05:42:20;7.60;66.00
65568;DHT22;52211;50.154;8.682;2023-04-08T05:44:47;7.60;66.70
65568;DHT22;52211;50.154;8.682;2023-04-08T05:47:14;7.60;66.00
65568;DHT22;52211;50.154;8.682;2023-04-08T05:49:46;7.70;66.10
65568;DHT22;52211;50.154;8.682;2023-04-08T05:52:15;7.70;66.10
65568;DHT22;52211;50.154;8.682;2023-04-08T05:54:46;7.70;66.10
65568;DHT22;52211;50.154;8.682;2023-04-08T05:57:15;7.70;66.10
65568;DHT22;52211;50.154;8.682;2023-04-08T05:59:47;7.70;66.10
65568;DHT22;52211;50.154;8.682;2023-04-08T06:02:19;7.80;66.20
65568;DHT22;52211;50.154;8.682;2023-04-08T06:04:48;7.80;66.10
65568;DHT22;52211;50.154;8.682;2023-04-08T06:07:16;7.80;66.10
65568;DHT22;52211;50.154;8.682;2023-04-08T06:09:50;7.90;66.20
65568;DHT22;52211;50.154;8.682;2023-04-08T06:12:19;7.90;66.20
65568;DHT22;52211;50.154;8.682;2023-04-08T06:14:46;8.00;66.30
65568;DHT22;52211;50.154;8.682;2023-04-08T06:17:16;8.00;66.30
65568;DHT22;52211;50.154;8.682;2023-04-08T06:19:45;8.10;66.40
65568;DHT22;52211;50.154;8.682;2023-04-08T06:22:12;8.20;66.40
65568;DHT22;52211;50.154;8.682;2023-04-08T06:24:41;8.20;66.40
65568;DHT22;52211;50.154;8.682;2023-04-08T06:27:08;8.30;66.40
65568;DHT22;52211;50.154;8.682;2023-04-08T06:29:35;8.30;66.40
65568;DHT22;52211;50.154;8.682;2023-04-08T06:32:02;8.40;66.50
65568;DHT22;52211;50.154;8.682;2023-04-08T06:34:29;8.50;66.40
65568;DHT22;52211;50.154;8.682;2023-04-08T06:37:04;8.50;66.30
65568;DHT22;52211;50.154;8.682;2023-04-08T06:39:33;8.60;66.50
65568;DHT22;52211;50.154;8.682;2023-04-08T06:42:02;8.70;66.40
65568;DHT22;52211;50.154;8.682;2023-04-08T06:44:42;8.70;66.40
65568;DHT22;52211;50.154;8.682;2023-04-08T06:47:11;8.80;66.30
65568;DHT22;52211;50.154;8.682;2023-04-08T06:49:42;8.90;66.30
65568;DHT22;52211;50.154;8.682;2023-04-08T06:52:09;9.00;66.20
65568;DHT22;52211;50.154;8.682;2023-04-08T06:54:38;9.10;66.20
65568;DHT22;52211;50.154;8.682;2023-04-08T06:57:05;9.10;66.10
65568;DHT22;52211;50.154;8.682;2023-04-08T06:59:33;9.20;66.10
65568;DHT22;52211;50.154;8.682;2023-04-08T07:02:02;9.20;66.10
65568;DHT22;52211;50.154;8.682;2023-04-08T07:04:30;9.30;66.20
65568;DHT22;52211;50.154;8.682;2023-04-08T07:07:01;9.40;66.10
65568;DHT22;52211;50.154;8.682;2023-04-08T07:09:32;9.40;66.00
65568;DHT22;52211;50.154;8.682;2023-04-08T07:11:59;9.50;66.10
65568;DHT22;52211;50.154;8.682;2023-04-08T07:14:26;9.60;66.10
65568;DHT22;52211;50.154;8.682;2023-04-08T07:16:55;9.60;66.00
65568;DHT22;52211;50.154;8.682;2023-04-08T07:19:25;9.70;66.00
65568;DHT22;52211;50.154;8.682;2023-04-08T07:21:52;9.80;66.10
65568;DHT22;52211;50.154;8.682;2023-04-08T07:24:22;9.80;66.00
65568;DHT22;52211;50.154;8.682;2023-04-08T07:26:49;9.90;66.00
65568;DHT22;52211;50.154;8.682;2023-04-08T07:29:18;10.00;65.90
65568;DHT22;52211;50.154;8.682;2023-04-08T07:31:48;10.10;65.90
65568;DHT22;52211;50.154;8.682;2023-04-08T07:34:17;10.10;65.80
65568;DHT22;52211;50.154;8.682;2023-04-08T07:36:46;10.20;65.80
65568;DHT22;52211;50.154;8.682;2023-04-08T07:39:13;10.20;65.80
65568;DHT22;52211;50.154;8.682;2023-04-08T07:41:45;10.30;65.80
65568;DHT22;52211;50.154;8.682;2023-04-08T07:44:11;10.40;65.80
65568;DHT22;52211;50.154;8.682;2023-04-08T07:46:42;10.50;65.70
65568;DHT22;52211;50.154;8.682;2023-04-08T07:49:14;10.50;65.60
65568;DHT22;52211;50.154;8.682;2023-04-08T07:51:48;10.60;65.60
65568;DHT22;52211;50.154;8.682;2023-04-08T07:54:17;10.70;65.50
65568;DHT22;52211;50.154;8.682;2023-04-08T07:56:47;10.70;65.40
65568;DHT22;52211;50.154;8.682;2023-04-08T07:59:16;10.80;65.40
65568;DHT22;52211;50.154;8.682;2023-04-08T08:01:43;10.80;65.30
65568;DHT22;52211;50.154;8.682;2023-04-08T08:04:13;10.90;65.20
65568;DHT22;52211;50.154;8.682;2023-04-08T08:06:40;11.00;65.20
65568;DHT22;52211;50.154;8.682;2023-04-08T08:09:09;11.00;65.20
65568;DHT22;52211;50.154;8.682;2023-04-08T08:11:39;11.00;65.20
65568;DHT22;52211;50.154;8.682;2023-04-08T08:14:08;11.10;65.10
65568;DHT22;52211;50.154;8.682;2023-04-08T08:16:37;11.10;65.10
65568;DHT22;52211;50.154;8.682;2023-04-08T08:19:04;11.10;65.00
65568;DHT22;52211;50.154;8.682;2023-04-08T08:21:36;11.10;64.90
65568;DHT22;52211;50.154;8.682;2023-04-08T08:24:06;11.10;64.90
65568;DHT22;52211;50.154;8.682;2023-04-08T08:26:36;11.10;64.90
65568;DHT22;52211;50.154;8.682;2023-04-08T08:29:08;11.20;64.80
65568;DHT22;52211;50.154;8.682;2023-04-08T08:31:37;11.20;64.70
65568;DHT22;52211;50.154;8.682;2023-04-08T08:34:06;11.20;64.70
65568;DHT22;52211;50.154;8.682;2023-04-08T08:36:36;11.20;64.70
65568;DHT22;52211;50.154;8.682;2023-04-08T08:39:03;11.20;64.70
65568;DHT22;52211;50.154;8.682;2023-04-08T08:41:36;11.20;64.60
65568;DHT22;52211;50.154;8.682;2023-04-08T08:44:05;11.20;64.70
65568;DHT22;52211;50.154;8.682;2023-04-08T08:46:44;11.20;64.60
65568;DHT22;52211;50.154;8.682;2023-04-08T08:49:18;11.20;64.60
65568;DHT22;52211;50.154;8.682;2023-04-08T08:51:47;11.20;64.60
65568;DHT22;52211;50.154;8.682;2023-04-08T08:54:16;11.20;64.50
65568;DHT22;52211;50.154;8.682;2023-04-08T08:56:43;11.20;64.50
65568;DHT22;52211;50.154;8.682;2023-04-08T08:59:17;11.10;64.50
65568;DHT22;52211;50.154;8.682;2023-04-08T09:01:46;11.10;64.50
65568;DHT22;52211;50.154;8.682;2023-04-08T09:04:15;11.20;64.60
65568;DHT22;52211;50.154;8.682;2023-04-08T09:06:49;11.10;64.50
65568;DHT22;52211;50.154;8.682;2023-04-08T09:09:49;11.20;64.50
65568;DHT22;52211;50.154;8.682;2023-04-08T09:12:18;11.30;64.30
65568;DHT22;52211;50.154;8.682;2023-04-08T09:14:50;11.30;64.40
65568;DHT22;52211;50.154;8.682;2023-04-08T09:17:37;11.30;64.40
65568;DHT22;52211;50.154;8.682;2023-04-08T09:22:58;11.40;64.30
65568;DHT22;52211;50.154;8.682;2023-04-08T09:25:28;11.40;64.10
65568;DHT22;52211;50.154;8.682;2023-04-08T09:28:01;11.50;64.20
65568;DHT22;52211;50.154;8.682;2023-04-08T09:30:33;11.50;64.10
65568;DHT22;52211;50.154;8.682;2023-04-08T09:33:07;11.60;64.00
65568;DHT22;52211;50.154;8.682;2023-04-08T09:35:39;11.70;63.90
65568;DHT22;52211;50.154;8.682;2023-04-08T09:38:09;11.70;63.80
65568;DHT22;52211;50.154;8.682;2023-04-08T09:40:42;11.80;63.70
65568;DHT22;52211;50.154;8.682;2023-04-08T09:43:12;11.80;63.60
65568;DHT22;52211;50.154;8.682;2023-04-08T09:45:48;11.90;63.70
65568;DHT22;52211;50.154;8.682;2023-04-08T09:48:23;12.00;63.60
65568;DHT22;52211;50.154;8.682;2023-04-08T09:50:59;12.00;63.10
65568;DHT22;52211;50.154;8.682;2023-04-08T09:53:37;12.10;63.10
65568;DHT22;52211;50.154;8.682;2023-04-08T09:56:13;12.10;62.60
65568;DHT22;52211;50.154;8.682;2023-04-08T10:01:21;12.20;62.50
65568;DHT22;52211;50.154;8.682;2023-04-08T10:03:57;12.20;62.60
65568;DHT22;52211;50.154;8.682;2023-04-08T10:06:32;12.30;62.60
65568;DHT22;52211;50.154;8.682;2023-04-08T10:09:01;12.30;62.60
65568;DHT22;52211;50.154;8.682;2023-04-08T10:11:33;12.30;62.80
65568;DHT22;52211;50.154;8.682;2023-04-08T10:14:04;12.40;62.90
65568;DHT22;52211;50.154;8.682;2023-04-08T10:16:31;12.50;63.00
65568;DHT22;52211;50.154;8.682;2023-04-08T10:18:58;12.70;63.00
65568;DHT22;52211;50.154;8.682;2023-04-08T10:24:06;13.00;63.10
65568;DHT22;52211;50.154;8.682;2023-04-08T10:31:47;13.40;62.10
65568;DHT22;52211;50.154;8.682;2023-04-08T10:34:19;13.60;62.20
65568;DHT22;52211;50.154;8.682;2023-04-08T10:36:48;13.70;62.00
65568;DHT22;52211;50.154;8.682;2023-04-08T10:39:18;13.80;61.80
65568;DHT22;52211;50.154;8.682;2023-04-08T10:41:48;13.90;61.70
65568;DHT22;52211;50.154;8.682;2023-04-08T10:44:21;14.00;61.50
65568;DHT22;52211;50.154;8.682;2023-04-08T10:46:52;14.10;61.70
65568;DHT22;52211;50.154;8.682;2023-04-08T10:49:20;14.30;61.90
65568;DHT22;52211;50.154;8.682;2023-04-08T10:51:47;14.50;62.00
65568;DHT22;52211;50.154;8.682;2023-04-08T10:54:18;14.70;62.00
65568;DHT22;52211;50.154;8.682;2023-04-08T10:56:50;15.00;61.50
65568;DHT22;52211;50.154;8.682;2023-04-08T10:59:30;15.20;60.80
65568;DHT22;52211;50.154;8.682;2023-04-08T11:02:00;15.40;60.40
65568;DHT22;52211;50.154;8.682;2023-04-08T11:04:33;15.60;60.50
65568;DHT22;52211;50.154;8.682;2023-04-08T11:07:08;15.60;60.30
65568;DHT22;52211;50.154;8.682;2023-04-08T11:09:40;15.80;60.00
65568;DHT22;52211;50.154;8.682;2023-04-08T11:12:11;15.80;59.60
65568;DHT22;52211;50.154;8.682;2023-04-08T11:14:42;15.90;59.80
65568;DHT22;52211;50.154;8.682;2023-04-08T11:17:14;16.00;59.60
65568;DHT22;52211;50.154;8.682;2023-04-08T11:19:45;16.10;59.40
65568;DHT22;52211;50.154;8.682;2023-04-08T11:22:15;16.10;59.40
65568;DHT22;52211;50.154;8.682;2023-04-08T11:24:45;16.30;59.60
65568;DHT22;52211;50.154;8.682;2023-04-08T11:27:15;16.40;59.10
65568;DHT22;52211;50.154;8.682;2023-04-08T11:29:44;16.50;58.80
65568;DHT22;52211;50.154;8.682;2023-04-08T11:32:11;16.50;58.30
65568;DHT22;52211;50.154;8.682;2023-04-08T11:34:41;16.50;58.10
65568;DHT22;52211;50.154;8.682;2023-04-08T11:37:11;16.40;57.80
65568;DHT22;52211;50.154;8.682;2023-04-08T11:39:46;16.30;57.70
65568;DHT22;52211;50.154;8.682;2023-04-08T11:42:32;16.30;57.10
65568;DHT22;52211;50.154;8.682;2023-04-08T11:45:11;16.10;56.90
65568;DHT22;52211;50.154;8.682;2023-04-08T11:47:42;16.10;57.30
65568;DHT22;52211;50.154;8.682;2023-04-08T11:50:22;15.90;57.20
65568;DHT22;52211;50.154;8.682;2023-04-08T11:52:52;15.80;57.10
65568;DHT22;52211;50.154;8.682;2023-04-08T11:55:32;15.70;57.30
65568;DHT22;52211;50.154;8.682;2023-04-08T11:58:04;15.60;57.40
65568;DHT22;52211;50.154;8.682;2023-04-08T12:00:35;15.60;58.30
65568;DHT22;52211;50.154;8.682;2023-04-08T12:03:07;15.70;58.60
65568;DHT22;52211;50.154;8.682;2023-04-08T12:05:38;15.80;58.40
65568;DHT22;52211;50.154;8.682;2023-04-08T12:08:10;15.80;58.30
65568;DHT22;52211;50.154;8.682;2023-04-08T12:10:42;16.00;58.30
65568;DHT22;52211;50.154;8.682;2023-04-08T12:13:09;16.10;58.20
65568;DHT22;52211;50.154;8.682;2023-04-08T12:15:36;16.20;58.20
65568;DHT22;52211;50.154;8.682;2023-04-08T12:18:03;16.20;57.90
65568;DHT22;52211;50.154;8.682;2023-04-08T12:20:31;16.30;57.70
65568;DHT22;52211;50.154;8.682;2023-04-08T12:22:58;16.30;57.70
65568;DHT22;52211;50.154;8.682;2023-04-08T12:25:25;16.30;57.60
65568;DHT22;52211;50.154;8.682;2023-04-08T12:27:55;16.30;57.40
65568;DHT22;52211;50.154;8.682;2023-04-08T12:30:22;16.30;57.20
65568;DHT22;52211;50.154;8.682;2023-04-08T12:32:49;16.40;57.50
65568;DHT22;52211;50.154;8.682;2023-04-08T12:35:16;16.50;57.90
65568;DHT22;52211;50.154;8.682;2023-04-08T12:37:45;16.60;57.70
65568;DHT22;52211;50.154;8.682;2023-04-08T12:40:12;16.80;57.80
65568;DHT22;52211;50.154;8.682;2023-04-08T12:42:42;17.00;58.00
65568;DHT22;52211;50.154;8.682;2023-04-08T12:45:09;17.30;58.00
65568;DHT22;52211;50.154;8.682;2023-04-08T12:47:36;17.50;57.60
65568;DHT22;52211;50.154;8.682;2023-04-08T12:50:07;17.80;57.20
65568;DHT22;52211;50.154;8.682;2023-04-08T12:52:35;18.10;57.40
65568;DHT22;52211;50.154;8.682;2023-04-08T12:55:03;18.40;57.40
65568;DHT22;52211;50.154;8.682;2023-04-08T12:57:30;18.70;57.20
65568;DHT22;52211;50.154;8.682;2023-04-08T12:59:57;19.00;57.20
65568;DHT22;52211;50.154;8.682;2023-04-08T13:02:24;19.40;56.50
65568;DHT22;52211;50.154;8.682;2023-04-08T13:04:55;19.60;56.50
65568;DHT22;52211;50.154;8.682;2023-04-08T13:07:24;19.60;55.20
65568;DHT22;52211;50.154;8.682;2023-04-08T13:09:58;19.70;54.50
65568;DHT22;52211;50.154;8.682;2023-04-08T13:12:37;19.80;53.90
65568;DHT22;52211;50.154;8.682;2023-04-08T13:15:06;19.60;53.40
65568;DHT22;52211;50.154;8.682;2023-04-08T13:17:36;19.50;53.30
65568;DHT22;52211;50.154;8.682;2023-04-08T13:20:04;19.40;53.10
65568;DHT22;52211;50.154;8.682;2023-04-08T13:22:35;19.20;52.90
65568;DHT22;52211;50.154;8.682;2023-04-08T13:25:07;19.00;53.10
65568;DHT22;52211;50.154;8.682;2023-04-08T13:27:34;18.80;52.90
65568;DHT22;52211;50.154;8.682;2023-04-08T13:30:05;18.70;53.10
65568;DHT22;52211;50.154;8.682;2023-04-08T13:32:36;18.50;53.00
65568;DHT22;52211;50.154;8.682;2023-04-08T13:35:05;18.30;53.10
65568;DHT22;52211;50.154;8.682;2023-04-08T13:37:34;18.20;53.30
65568;DHT22;52211;50.154;8.682;2023-04-08T13:40:04;18.00;53.20
65568;DHT22;52211;50.154;8.682;2023-04-08T13:42:35;17.80;53.30
65568;DHT22;52211;50.154;8.682;2023-04-08T13:45:07;17.70;53.50
65568;DHT22;52211;50.154;8.682;2023-04-08T13:47:37;17.60;53.50
65568;DHT22;52211;50.154;8.682;2023-04-08T13:50:05;17.40;53.60
65568;DHT22;52211;50.154;8.682;2023-04-08T13:52:37;17.30;53.70
65568;DHT22;52211;50.154;8.682;2023-04-08T13:55:06;17.20;53.80
65568;DHT22;52211;50.154;8.682;2023-04-08T13:57:38;17.00;53.80
65568;DHT22;52211;50.154;8.682;2023-04-08T14:00:06;16.90;54.00
65568;DHT22;52211;50.154;8.682;2023-04-08T14:02:40;16.90;54.10
65568;DHT22;52211;50.154;8.682;2023-04-08T14:05:07;16.80;54.10
65568;DHT22;52211;50.154;8.682;2023-04-08T14:07:34;16.70;54.10
65568;DHT22;52211;50.154;8.682;2023-04-08T14:10:06;16.60;54.00
65568;DHT22;52211;50.154;8.682;2023-04-08T14:12:34;16.50;54.00
65568;DHT22;52211;50.154;8.682;2023-04-08T14:15:01;16.40;54.10
65568;DHT22;52211;50.154;8.682;2023-04-08T14:17:31;16.30;54.20
65568;DHT22;52211;50.154;8.682;2023-04-08T14:20:01;16.30;54.20
65568;DHT22;52211;50.154;8.682;2023-04-08T14:22:31;16.20;54.30
65568;DHT22;52211;50.154;8.682;2023-04-08T14:24:58;16.10;54.20
65568;DHT22;52211;50.154;8.682;2023-04-08T14:27:26;16.00;54.30
65568;DHT22;52211;50.154;8.682;2023-04-08T14:29:55;15.90;54.40
65568;DHT22;52211;50.154;8.682;2023-04-08T14:32:22;15.90;54.60
65568;DHT22;52211;50.154;8.682;2023-04-08T14:34:54;15.80;54.70
65568;DHT22;52211;50.154;8.682;2023-04-08T14:37:21;15.80;54.80
65568;DHT22;52211;50.154;8.682;2023-04-08T14:39:52;15.70;54.90
65568;DHT22;52211;50.154;8.682;2023-04-08T14:42:19;15.70;54.90
65568;DHT22;52211;50.154;8.682;2023-04-08T14:44:48;15.70;55.10
65568;DHT22;52211;50.154;8.682;2023-04-08T14:47:19;15.70;55.20
65568;DHT22;52211;50.154;8.682;2023-04-08T14:49:46;15.70;55.30
65568;DHT22;52211;50.154;8.682;2023-04-08T14:52:17;15.70;55.30
65568;DHT22;52211;50.154;8.682;2023-04-08T14:54:47;15.70;55.30
65568;DHT22;52211;50.154;8.682;2023-04-08T14:57:18;15.70;55.30
65568;DHT22;52211;50.154;8.682;2023-04-08T14:59:47;15.70;55.30
65568;DHT22;52211;50.154;8.682;2023-04-08T15:02:19;15.80;55.40
65568;DHT22;52211;50.154;8.682;2023-04-08T15:04:53;15.80;55.50
65568;DHT22;52211;50.154;8.682;2023-04-08T15:07:19;15.80;55.50
65568;DHT22;52211;50.154;8.682;2023-04-08T15:09:46;15.80;55.50
65568;DHT22;52211;50.154;8.682;2023-04-08T15:12:18;15.90;55.60
65568;DHT22;52211;50.154;8.682;2023-04-08T15:14:48;15.90;55.70
65568;DHT22;52211;50.154;8.682;2023-04-08T15:17:17;16.00;55.80
65568;DHT22;52211;50.154;8.682;2023-04-08T15:19:44;16.00;55.70
65568;DHT22;52211;50.154;8.682;2023-04-08T15:22:12;16.10;55.80
65568;DHT22;52211;50.154;8.682;2023-04-08T15:24:39;16.30;55.90
65568;DHT22;52211;50.154;8.682;2023-04-08T15:27:09;16.30;55.70
65568;DHT22;52211;50.154;8.682;2023-04-08T15:29:37;16.40;55.60
65568;DHT22;52211;50.154;8.682;2023-04-08T15:32:12;16.40;55.40
65568;DHT22;52211;50.154;8.682;2023-04-08T15:34:41;16.50;55.40
65568;DHT22;52211;50.154;8.682;2023-04-08T15:37:12;16.60;55.30
65568;DHT22;52211;50.154;8.682;2023-04-08T15:39:41;16.60;55.10
65568;DHT22;52211;50.154;8.682;2023-04-08T15:42:11;16.60;55.00
65568;DHT22;52211;50.154;8.682;2023-04-08T15:44:38;16.60;55.00
65568;DHT22;52211;50.154;8.682;2023-04-08T15:47:05;16.50;54.80
65568;DHT22;52211;50.154;8.682;2023-04-08T15:49:33;16.50;54.80
65568;DHT22;52211;50.154;8.682;2023-04-08T15:52:04;16.50;54.70
65568;DHT22;52211;50.154;8.682;2023-04-08T15:54:37;16.40;54.70
65568;DHT22;52211;50.154;8.682;2023-04-08T15:57:09;16.40;54.70
65568;DHT22;52211;50.154;8.682;2023-04-08T15:59:38;16.30;54.80
65568;DHT22;52211;50.154;8.682;2023-04-08T16:02:07;16.30;54.80
65568;DHT22;52211;50.154;8.682;2023-04-08T16:04:34;16.20;54.90
65568;DHT22;52211;50.154;8.682;2023-04-08T16:07:01;16.20;54.80
65568;DHT22;52211;50.154;8.682;2023-04-08T16:09:30;16.10;54.80